createdAt,value
2023-11-21T00:01:50.614Z,18.93
2023-11-21T00:04:53.499Z,18.99
2023-11-21T00:07:55.843Z,18.97
2023-11-21T00:10:58.301Z,19.00
2023-11-21T00:14:00.779Z,19.01
2023-11-21T00:17:02.805Z,19.04
2023-11-21T00:20:07.804Z,19.00
2023-11-21T00:23:11.209Z,19.06
2023-11-21T00:26:13.640Z,19.08
2023-11-21T00:29:18.533Z,19.08
2023-11-21T00:32:20.871Z,19.10
2023-11-21T00:35:22.836Z,19.11
2023-11-21T00:38:25.507Z,19.08
2023-11-21T00:41:28.802Z,19.11
2023-11-21T00:44:31.047Z,19.14
2023-11-21T00:47:35.657Z,19.10
2023-11-21T00:50:38.011Z,19.04
2023-11-21T00:53:40.565Z,18.94
2023-11-21T00:56:42.907Z,18.89
2023-11-21T00:59:44.896Z,18.80
2023-11-21T01:02:47.957Z,18.77
2023-11-21T01:05:51.369Z,18.73
2023-11-21T01:08:53.743Z,18.66
2023-11-21T01:11:55.667Z,18.64
2023-11-21T01:15:01.335Z,18.63
2023-11-21T01:18:04.868Z,18.57
2023-11-21T01:21:08.721Z,18.55
2023-11-21T01:24:10.688Z,18.53
2023-11-21T01:27:13.067Z,18.52
2023-11-21T01:30:15.663Z,18.47
2023-11-21T01:33:18.033Z,18.46
2023-11-21T01:36:20.072Z,18.46
2023-11-21T01:39:25.058Z,18.45
2023-11-21T01:42:28.206Z,18.12
2023-11-21T01:45:34.483Z,17.96
2023-11-21T01:48:36.792Z,17.86
2023-11-21T01:51:39.243Z,17.74
2023-11-21T01:54:42.101Z,17.78
2023-11-21T01:57:47.854Z,17.96
2023-11-21T02:00:52.113Z,18.06
2023-11-21T02:03:54.532Z,18.10
2023-11-21T02:06:57.297Z,18.13
2023-11-21T02:10:00.234Z,18.16
2023-11-21T02:13:04.289Z,18.18
2023-11-21T02:16:07.172Z,18.16
2023-11-21T02:19:13.724Z,18.15
2023-11-21T02:22:18.013Z,18.15
2023-11-21T02:25:20.101Z,18.13
2023-11-21T02:28:27.198Z,18.13
2023-11-21T02:31:29.554Z,18.10
2023-11-21T02:34:31.918Z,18.10
2023-11-21T02:37:33.910Z,18.12
2023-11-21T02:40:36.230Z,18.13
2023-11-21T02:43:39.893Z,18.12
2023-11-21T02:46:42.490Z,18.09
2023-11-21T02:49:44.565Z,18.12
2023-11-21T02:52:47.215Z,18.12
2023-11-21T02:55:49.969Z,18.13
2023-11-21T02:58:52.369Z,18.15
2023-11-21T03:01:54.478Z,18.15
2023-11-21T03:04:56.801Z,18.10
2023-11-21T03:07:58.867Z,17.85
2023-11-21T03:11:06.001Z,17.99
2023-11-21T03:14:08.101Z,17.23
2023-11-21T03:17:10.387Z,17.40
2023-11-21T03:20:12.890Z,17.67
2023-11-21T03:23:16.322Z,17.77
2023-11-21T03:26:18.323Z,17.85
2023-11-21T03:29:20.738Z,17.85
2023-11-21T03:32:22.826Z,17.88
2023-11-21T03:35:25.814Z,17.88
2023-11-21T03:38:27.996Z,17.65
2023-11-21T03:41:30.394Z,17.70
2023-11-21T03:44:32.393Z,17.27
2023-11-21T03:47:34.656Z,17.53
2023-11-21T03:50:36.885Z,17.65
2023-11-21T03:53:39.241Z,17.53
2023-11-21T03:56:43.617Z,15.94
2023-11-21T03:59:45.917Z,14.88
2023-11-21T04:02:48.003Z,15.94
2023-11-21T04:05:50.414Z,15.30
2023-11-21T04:08:52.384Z,13.98
2023-11-21T04:11:54.892Z,13.26
2023-11-21T04:14:56.826Z,13.09
2023-11-21T04:17:59.712Z,13.23
2023-11-21T04:21:01.772Z,13.36
2023-11-21T04:24:04.317Z,14.69
2023-11-21T04:27:06.386Z,14.16
2023-11-21T04:30:09.043Z,13.16
2023-11-21T04:33:11.068Z,12.60
2023-11-21T04:36:13.362Z,12.34
2023-11-21T04:39:15.326Z,12.20
2023-11-21T04:42:17.644Z,12.01
2023-11-21T04:45:19.673Z,12.13
2023-11-21T04:48:22.119Z,12.01
2023-11-21T04:51:24.113Z,11.90
2023-11-21T04:54:28.618Z,11.80
2023-11-21T04:57:31.001Z,11.62
2023-11-21T05:00:33.548Z,11.59
2023-11-21T05:03:36.311Z,11.46
2023-11-21T05:06:38.703Z,11.49
2023-11-21T05:09:45.251Z,11.52
2023-11-21T05:12:47.754Z,11.48
2023-11-21T05:15:50.842Z,11.43
2023-11-21T05:18:53.073Z,11.31
2023-11-21T05:21:55.084Z,11.26
2023-11-21T05:24:57.594Z,11.24
2023-11-21T05:28:02.431Z,11.19
2023-11-21T05:31:10.900Z,11.17
2023-11-21T05:34:18.971Z,11.05
2023-11-21T05:37:21.442Z,11.12
2023-11-21T05:40:23.943Z,11.10
2023-11-21T05:43:26.322Z,11.14
2023-11-21T05:46:28.335Z,11.08
2023-11-21T05:49:31.260Z,11.05
2023-11-21T05:52:33.941Z,11.01
2023-11-21T05:55:36.259Z,10.94
2023-11-21T05:58:38.313Z,10.87
2023-11-21T06:01:40.640Z,10.90
2023-11-21T06:04:42.728Z,10.91
2023-11-21T06:07:45.580Z,10.84
2023-11-21T06:10:50.427Z,10.90
2023-11-21T06:13:54.554Z,10.90
2023-11-21T06:16:57.797Z,10.95
2023-11-21T06:20:00.423Z,11.03
2023-11-21T06:23:04.917Z,11.18
2023-11-21T06:26:07.328Z,11.15
2023-11-21T06:29:09.327Z,11.22
2023-11-21T06:32:11.842Z,11.43
2023-11-21T06:35:14.540Z,11.36
2023-11-21T06:38:16.958Z,11.54
2023-11-21T06:41:19.142Z,11.54
2023-11-21T06:44:21.404Z,11.40
2023-11-21T06:47:23.445Z,11.58
2023-11-21T06:50:25.814Z,11.54
2023-11-21T06:53:27.810Z,11.43
2023-11-21T06:56:30.109Z,11.40
2023-11-21T06:59:32.213Z,11.45
2023-11-21T07:02:37.110Z,11.36
2023-11-21T07:05:40.348Z,11.49
2023-11-21T07:08:43.815Z,11.39
2023-11-21T07:11:45.851Z,11.58
2023-11-21T07:14:48.140Z,11.62
2023-11-21T07:17:50.288Z,11.87
2023-11-21T07:20:53.220Z,11.80
2023-11-21T07:23:55.199Z,11.76
2023-11-21T07:26:57.878Z,11.93
2023-11-21T07:29:59.996Z,11.91
2023-11-21T07:33:02.571Z,12.07
2023-11-21T07:36:04.868Z,12.01
2023-11-21T07:39:07.885Z,12.29
2023-11-21T07:42:10.339Z,12.26
2023-11-21T07:45:12.804Z,12.34
2023-11-21T07:48:15.017Z,11.96
2023-11-21T07:51:17.901Z,11.82
2023-11-21T07:54:19.980Z,11.89
2023-11-21T07:57:22.369Z,12.06
2023-11-21T08:00:31.414Z,12.10
2023-11-21T08:03:34.036Z,12.44
2023-11-21T08:06:36.505Z,12.14
2023-11-21T08:09:39.004Z,12.00
2023-11-21T08:12:41.119Z,11.87
2023-11-21T08:15:47.986Z,12.17
2023-11-21T08:18:50.144Z,12.13
2023-11-21T08:21:57.192Z,12.06
2023-11-21T08:24:59.572Z,12.21
2023-11-21T08:28:02.843Z,11.83
2023-11-21T08:31:05.778Z,11.58
2023-11-21T08:34:08.298Z,11.54
2023-11-21T08:37:10.389Z,11.65
2023-11-21T08:40:18.125Z,11.83
2023-11-21T08:43:21.239Z,12.01
2023-11-21T08:46:24.267Z,12.82
2023-11-21T08:49:28.841Z,12.54
2023-11-21T08:52:31.462Z,12.71
2023-11-21T08:55:38.784Z,12.82
2023-11-21T08:58:42.996Z,13.22
2023-11-21T09:01:45.272Z,13.46
2023-11-21T09:04:48.646Z,13.33
2023-11-21T09:07:50.865Z,13.55
2023-11-21T09:10:53.157Z,13.93
2023-11-21T09:13:55.446Z,14.27
2023-11-21T09:16:57.880Z,14.16
2023-11-21T09:19:59.987Z,14.17
2023-11-21T09:23:02.524Z,14.41
2023-11-21T09:26:06.515Z,14.44
2023-11-21T09:29:09.764Z,14.18
2023-11-21T09:32:15.390Z,14.16
2023-11-21T09:35:18.811Z,14.35
2023-11-21T09:38:21.107Z,14.10
2023-11-21T09:41:41.865Z,14.07
2023-11-21T09:45:00.574Z,14.21
2023-11-21T09:48:03.843Z,14.25
2023-11-21T09:51:07.300Z,14.57
2023-11-21T09:54:12.369Z,14.20
2023-11-21T09:57:15.369Z,13.93
2023-11-21T10:00:19.413Z,14.48
2023-11-21T10:03:22.399Z,14.11
2023-11-21T10:06:27.894Z,13.93
2023-11-21T10:09:31.931Z,14.55
2023-11-21T10:12:34.811Z,14.13
2023-11-21T10:15:37.129Z,13.77
2023-11-21T10:18:41.679Z,13.46
2023-11-21T10:21:43.862Z,13.88
2023-11-21T10:24:52.395Z,13.26
2023-11-21T10:28:06.317Z,12.89
2023-11-21T10:31:08.971Z,12.54
2023-11-21T10:34:19.557Z,12.40
2023-11-21T10:37:21.860Z,12.68
2023-11-21T10:40:23.977Z,12.69
2023-11-21T10:43:28.078Z,12.98
2023-11-21T10:46:31.853Z,12.10
2023-11-21T10:49:34.242Z,12.29
2023-11-21T10:52:37.492Z,12.40
2023-11-21T10:55:45.588Z,13.59
2023-11-21T10:58:55.469Z,13.77
2023-11-21T11:01:59.622Z,12.65
2023-11-21T11:05:03.196Z,12.85
2023-11-21T11:08:09.226Z,12.31
2023-11-21T11:11:11.594Z,12.20
2023-11-21T11:14:17.339Z,12.21
2023-11-21T11:17:23.895Z,12.47
2023-11-21T11:20:38.487Z,13.52
2023-11-21T11:23:51.552Z,13.04
2023-11-21T11:27:17.213Z,13.22
2023-11-21T11:30:47.933Z,12.57
2023-11-21T11:34:02.043Z,13.42
2023-11-21T11:37:07.533Z,13.76
2023-11-21T11:40:13.331Z,13.39
2023-11-21T11:43:29.093Z,13.62
2023-11-21T11:46:48.728Z,14.13
2023-11-21T11:49:59.356Z,14.40
2023-11-21T11:53:15.646Z,14.44
2023-11-21T11:56:24.009Z,14.27
2023-11-21T11:59:27.152Z,14.44
2023-11-21T12:02:29.576Z,14.17
2023-11-21T12:05:42.788Z,14.01
2023-11-21T12:08:46.578Z,14.31
2023-11-21T12:11:50.054Z,14.44
2023-11-21T12:14:52.309Z,14.40
2023-11-21T12:17:54.622Z,14.62
2023-11-21T12:20:56.844Z,14.51
2023-11-21T12:23:59.740Z,14.24
2023-11-21T12:27:01.729Z,14.41
2023-11-21T12:30:04.311Z,14.71
2023-11-21T12:33:08.211Z,14.68
2023-11-21T12:36:12.456Z,14.25
2023-11-21T12:39:15.783Z,14.10
2023-11-21T12:42:18.831Z,14.10
2023-11-21T12:45:29.027Z,13.63
2023-11-21T12:48:33.152Z,13.88
2023-11-21T12:51:35.202Z,14.86
2023-11-21T12:54:37.502Z,14.13
2023-11-21T12:57:44.280Z,14.18
2023-11-21T13:00:48.771Z,14.16
2023-11-21T13:03:52.514Z,13.74
2023-11-21T13:06:56.796Z,13.87
2023-11-21T13:09:58.922Z,14.34
2023-11-21T13:13:02.358Z,14.24
2023-11-21T13:16:09.380Z,14.38
2023-11-21T13:19:12.800Z,14.45
2023-11-21T13:22:14.772Z,14.30
2023-11-21T13:25:23.180Z,14.18
2023-11-21T13:28:28.004Z,13.69
2023-11-21T13:31:34.008Z,14.08
2023-11-21T13:34:37.900Z,13.67
2023-11-21T13:37:44.996Z,14.01
2023-11-21T13:40:54.652Z,14.40
2023-11-21T13:44:10.510Z,14.03
2023-11-21T13:47:12.638Z,13.87
2023-11-21T13:50:20.329Z,13.42
2023-11-21T13:53:31.856Z,13.66
2023-11-21T13:56:34.442Z,13.63
2023-11-21T13:59:37.959Z,13.55
2023-11-21T14:02:44.037Z,13.71
2023-11-21T14:05:49.102Z,13.87
2023-11-21T14:08:52.605Z,13.93
2023-11-21T14:11:58.052Z,14.18
2023-11-21T14:15:01.158Z,14.38
2023-11-21T14:18:07.507Z,13.83
2023-11-21T14:21:11.804Z,13.71
2023-11-21T14:24:13.968Z,13.52
2023-11-21T14:27:16.540Z,13.81
2023-11-21T14:30:20.950Z,14.17
2023-11-21T14:33:24.067Z,14.10
2023-11-21T14:36:27.052Z,13.90
2023-11-21T14:39:29.464Z,14.11
2023-11-21T14:42:31.447Z,13.98
2023-11-21T14:45:35.060Z,13.91
2023-11-21T14:48:43.812Z,13.83
2023-11-21T14:52:01.616Z,13.56
2023-11-21T14:55:22.833Z,13.94
2023-11-21T14:58:28.041Z,13.81
2023-11-21T15:02:02.280Z,13.63
2023-11-21T15:05:06.734Z,13.74
2023-11-21T15:08:22.966Z,13.87
2023-11-21T15:11:32.051Z,14.01
2023-11-21T15:14:37.986Z,13.23
2023-11-21T15:17:44.484Z,13.47
2023-11-21T15:20:46.604Z,13.43
2023-11-21T15:23:49.267Z,13.46
2023-11-21T15:26:51.783Z,13.26
2023-11-21T15:29:54.845Z,13.45
2023-11-21T15:32:57.371Z,13.63
2023-11-21T15:36:00.162Z,14.17
2023-11-21T15:39:02.409Z,13.81
2023-11-21T15:42:06.270Z,13.93
2023-11-21T15:45:09.660Z,14.18
2023-11-21T15:48:13.246Z,13.93
2023-11-21T15:51:15.390Z,13.76
2023-11-21T15:54:17.742Z,14.08
2023-11-21T15:57:23.103Z,14.38
2023-11-21T16:00:25.695Z,14.14
2023-11-21T16:03:29.765Z,13.98
2023-11-21T16:06:32.244Z,13.78
2023-11-21T16:09:37.576Z,14.24
2023-11-21T16:12:41.525Z,14.07
2023-11-21T16:15:43.942Z,13.84
2023-11-21T16:18:46.623Z,13.06
2023-11-21T16:21:49.215Z,13.22
2023-11-21T16:24:51.530Z,13.83
2023-11-21T16:27:53.546Z,14.62
2023-11-21T16:30:55.848Z,14.45
2023-11-21T16:34:01.004Z,14.91
2023-11-21T16:37:04.898Z,14.95
2023-11-21T16:40:10.224Z,15.34
2023-11-21T16:43:12.696Z,15.07
2023-11-21T16:46:15.212Z,15.39
2023-11-21T16:49:17.980Z,15.44
2023-11-21T16:52:23.755Z,15.53
2023-11-21T16:55:26.259Z,14.93
2023-11-21T16:58:28.235Z,14.28
2023-11-21T17:01:31.007Z,13.81
2023-11-21T17:04:33.572Z,13.78
2023-11-21T17:07:35.802Z,13.93
2023-11-21T17:10:38.314Z,13.15
2023-11-21T17:13:43.499Z,12.98
2023-11-21T17:16:46.845Z,13.20
2023-11-21T17:19:49.358Z,14.61
2023-11-21T17:22:51.372Z,15.67
2023-11-21T17:25:54.045Z,14.99
2023-11-21T17:28:56.853Z,14.58
2023-11-21T17:31:59.305Z,15.33
2023-11-21T17:35:01.814Z,16.18
2023-11-21T17:38:04.181Z,16.63
2023-11-21T17:41:06.251Z,16.66
2023-11-21T17:44:08.969Z,16.22
2023-11-21T17:47:12.095Z,16.28
2023-11-21T17:50:15.260Z,16.38
2023-11-21T17:53:17.727Z,16.22
2023-11-21T17:56:20.722Z,16.39
2023-11-21T17:59:23.674Z,16.24
2023-11-21T18:02:26.685Z,15.30
2023-11-21T18:05:28.759Z,15.02
2023-11-21T18:08:31.095Z,14.96
2023-11-21T18:11:33.103Z,15.57
2023-11-21T18:14:37.148Z,15.29
2023-11-21T18:17:43.575Z,16.14
2023-11-21T18:20:53.788Z,16.17
2023-11-21T18:23:56.134Z,15.02
2023-11-21T18:26:58.459Z,14.13
2023-11-21T18:30:03.712Z,12.68
2023-11-21T18:33:06.146Z,11.85
2023-11-21T18:36:08.972Z,12.87
2023-11-21T18:39:15.695Z,13.63
2023-11-21T18:42:18.648Z,13.40
2023-11-21T18:45:20.961Z,11.85
2023-11-21T18:48:23.347Z,12.71
2023-11-21T18:51:25.818Z,13.49
2023-11-21T18:54:27.980Z,12.40
2023-11-21T18:57:32.665Z,11.18
2023-11-21T19:00:34.867Z,10.63
2023-11-21T19:03:37.220Z,10.20
2023-11-21T19:06:39.334Z,10.30
2023-11-21T19:09:41.917Z,11.99
2023-11-21T19:12:52.470Z,12.12
2023-11-21T19:15:54.749Z,12.36
2023-11-21T19:18:59.963Z,12.84
2023-11-21T19:22:02.318Z,13.20
2023-11-21T19:25:07.666Z,13.27
2023-11-21T19:28:09.913Z,11.69
2023-11-21T19:31:19.863Z,11.70
2023-11-21T19:34:22.251Z,11.54
2023-11-21T19:37:24.423Z,11.28
2023-11-21T19:40:26.768Z,11.03
2023-11-21T19:43:32.381Z,11.19
2023-11-21T19:46:34.823Z,11.40
2023-11-21T19:49:36.817Z,11.00
2023-11-21T19:52:39.208Z,11.26
2023-11-21T19:55:41.187Z,10.85
2023-11-21T19:58:43.406Z,10.93
2023-11-21T20:01:45.466Z,10.43
2023-11-21T20:04:47.843Z,9.78
2023-11-21T20:07:49.788Z,9.55
2023-11-21T20:10:52.171Z,9.24
2023-11-21T20:13:54.990Z,8.76
2023-11-21T20:16:59.896Z,9.03
2023-11-21T20:20:03.034Z,9.08
2023-11-21T20:23:05.972Z,9.41
2023-11-21T20:26:08.028Z,9.45
2023-11-21T20:29:10.626Z,8.94
2023-11-21T20:32:12.921Z,9.08
2023-11-21T20:35:37.432Z,9.38
2023-11-21T20:38:39.702Z,9.34
2023-11-21T20:41:42.563Z,9.34
2023-11-21T20:44:44.587Z,10.00
2023-11-21T20:47:47.037Z,9.86
2023-11-21T20:50:49.157Z,9.93
2023-11-21T20:53:51.409Z,9.11
2023-11-21T20:56:53.664Z,8.96
2023-11-21T20:59:56.026Z,9.32
2023-11-21T21:02:58.306Z,10.00
2023-11-21T21:06:01.146Z,12.38
2023-11-21T21:09:03.197Z,11.93
2023-11-21T21:12:06.209Z,13.49
2023-11-21T21:15:11.247Z,13.05
2023-11-21T21:18:13.566Z,12.80
2023-11-21T21:21:15.610Z,12.50
2023-11-21T21:24:17.955Z,12.20
2023-11-21T21:27:19.960Z,12.33
2023-11-21T21:30:22.752Z,13.47
2023-11-21T21:33:24.755Z,14.67
2023-11-21T21:36:27.286Z,13.20
2023-11-21T21:39:29.363Z,13.11
2023-11-21T21:42:31.639Z,12.77
2023-11-21T21:45:33.754Z,12.65
2023-11-21T21:48:42.104Z,12.24
2023-11-21T21:51:45.017Z,12.60
2023-11-21T21:54:47.824Z,12.06
2023-11-21T21:57:49.904Z,11.54
2023-11-21T22:00:52.172Z,11.76
2023-11-21T22:03:54.409Z,12.23
2023-11-21T22:06:56.832Z,14.18
2023-11-21T22:09:58.794Z,15.32
2023-11-21T22:13:01.185Z,15.91
2023-11-21T22:16:03.235Z,16.25
2023-11-21T22:19:07.215Z,16.41
2023-11-21T22:22:09.486Z,16.02
2023-11-21T22:25:12.519Z,13.86
2023-11-21T22:28:14.449Z,12.04
2023-11-21T22:31:16.666Z,11.25
2023-11-21T22:34:19.398Z,11.14
2023-11-21T22:37:22.057Z,11.85
2023-11-21T22:40:24.012Z,13.56
2023-11-21T22:43:26.278Z,14.69
2023-11-21T22:46:30.558Z,15.49
2023-11-21T22:49:33.256Z,16.01
2023-11-21T22:52:35.200Z,16.29
2023-11-21T22:55:37.463Z,16.58
2023-11-21T22:58:40.629Z,16.60
2023-11-21T23:01:42.973Z,16.65
2023-11-21T23:04:45.194Z,16.93
2023-11-21T23:07:47.723Z,16.90
2023-11-21T23:10:54.313Z,16.84
2023-11-21T23:13:56.641Z,15.44
2023-11-21T23:16:59.452Z,12.60
2023-11-21T23:20:07.079Z,11.32
2023-11-21T23:23:09.066Z,11.25
2023-11-21T23:26:16.164Z,11.82
2023-11-21T23:29:18.284Z,13.15
2023-11-21T23:32:22.343Z,14.75
2023-11-21T23:35:25.059Z,15.60
2023-11-21T23:38:27.519Z,16.11
2023-11-21T23:41:29.470Z,16.35
2023-11-21T23:44:31.943Z,16.41
2023-11-21T23:47:34.032Z,16.66
2023-11-21T23:50:36.428Z,16.68
2023-11-21T23:53:38.382Z,16.49
2023-11-21T23:56:40.809Z,14.00
2023-11-21T23:59:42.774Z,12.85
